Time;durP1;ratioP1;P1;durP2;ratioP2;P2;SDS_P1;SDS_P2;PMS_P1;PMS_P2;Temp;Humidity;BMP_temperature;BMP_pressure;BME280_temperature;BME280_humidity;BME280_pressure;Samples;Min_cycle;Max_cycle;Signal;HPM_P1;HPM_P2
2021/01/12 00:00:59;;;;;;;228.53;93.10;;;;;;;-7.60;100.00;98975.09;2097520;28;20688;-75
2021/01/12 00:02:00;;;;;;;244.02;94.93;;;;;;;-7.59;100.00;98968.13;2097663;28;20313;-75
2021/01/12 00:03:01;;;;;;;248.33;97.13;;;;;;;-7.57;100.00;98973.91;2097848;28;20225;-75
2021/01/12 00:04:02;;;;;;;245.48;97.40;;;;;;;-7.60;100.00;98972.50;2096967;28;20609;-75
2021/01/12 00:05:06;;;;;;;227.90;94.43;;;;;;;-7.66;100.00;98959.47;2097015;28;20236;-75
2021/01/12 00:06:07;;;;;;;237.20;93.93;;;;;;;-7.65;100.00;98959.28;2096627;28;20696;-75
2021/01/12 00:07:08;;;;;;;221.73;89.43;;;;;;;-7.63;100.00;98967.69;2097663;28;20288;-75
2021/01/12 00:08:09;;;;;;;216.55;86.53;;;;;;;-7.66;100.00;98965.44;2095940;28;20277;-74
2021/01/12 00:09:10;;;;;;;224.88;88.85;;;;;;;-7.65;100.00;98963.66;2096926;28;20226;-74
2021/01/12 00:10:11;;;;;;;220.03;87.60;;;;;;;-7.69;100.00;98965.81;2095952;28;20254;-75
2021/01/12 00:11:12;;;;;;;215.25;85.47;;;;;;;-7.74;100.00;98961.16;2097022;28;20222;-75
2021/01/12 00:12:14;;;;;;;223.43;85.32;;;;;;;-7.72;100.00;98967.00;2097675;28;20232;-75
2021/01/12 00:13:15;;;;;;;217.68;86.03;;;;;;;-7.77;100.00;98958.94;2097565;28;20683;-75
2021/01/12 00:15:31;;;;;;;223.80;89.18;;;;;;;-7.78;100.00;98964.31;2090311;28;20222;-75
2021/01/12 00:16:32;;;;;;;225.82;87.32;;;;;;;-7.83;100.00;98954.47;2097608;28;20226;-75
2021/01/12 00:17:34;;;;;;;223.63;86.43;;;;;;;-7.94;100.00;98936.03;2096889;28;20278;-75
2021/01/12 00:18:34;;;;;;;218.55;89.68;;;;;;;-7.83;100.00;98958.84;2096914;28;20315;-75
2021/01/12 00:19:37;;;;;;;219.80;85.37;;;;;;;-7.87;100.00;98957.63;2097758;28;20226;-75
2021/01/12 00:20:38;;;;;;;218.73;87.10;;;;;;;-8.01;100.00;98939.31;2096313;28;20229;-74
2021/01/12 00:21:40;;;;;;;246.70;94.45;;;;;;;-7.97;100.00;98947.56;2096495;28;20267;-75
2021/01/12 00:22:41;;;;;;;280.80;107.95;;;;;;;-7.99;100.00;98939.97;2105216;28;20213;-75
2021/01/12 00:23:42;;;;;;;297.10;114.22;;;;;;;-7.88;100.00;98951.66;2097459;28;20229;-75
2021/01/12 00:24:44;;;;;;;289.83;111.32;;;;;;;-7.88;100.00;98956.81;2096864;28;20222;-75
2021/01/12 00:25:45;;;;;;;236.25;93.15;;;;;;;-7.89;100.00;98957.81;2096888;28;20225;-75
2021/01/12 00:26:46;;;;;;;258.07;97.13;;;;;;;-7.90;100.00;98956.22;2096708;28;20302;-75
2021/01/12 00:27:46;;;;;;;255.60;96.47;;;;;;;-7.92;100.00;98960.75;2088332;28;20754;-75
2021/01/12 00:28:48;;;;;;;217.37;88.30;;;;;;;-7.91;100.00;98953.78;2088041;28;20657;-75
2021/01/12 00:29:49;;;;;;;218.27;88.05;;;;;;;-8.01;100.00;98951.47;2096931;28;20699;-75
2021/01/12 00:30:50;;;;;;;258.85;98.75;;;;;;;-7.95;100.00;98958.53;2095705;28;20218;-75
2021/01/12 00:31:51;;;;;;;257.63;98.87;;;;;;;-7.95;100.00;98949.94;2096600;28;20252;-76
2021/01/12 00:32:52;;;;;;;272.17;100.97;;;;;;;-7.97;100.00;98957.91;2096496;28;20229;-74
2021/01/12 00:33:53;;;;;;;272.20;106.53;;;;;;;-7.99;100.00;98958.09;2097453;28;20699;-76
2021/01/12 00:34:55;;;;;;;255.05;105.43;;;;;;;-8.01;100.00;98960.03;2096540;28;20233;-75
2021/01/12 00:35:57;;;;;;;242.52;96.05;;;;;;;-8.01;100.00;98960.03;2096874;28;20661;-76
2021/01/12 00:36:58;;;;;;;223.30;90.68;;;;;;;-8.05;100.00;98953.63;2097331;28;20225;-75
2021/01/12 00:37:59;;;;;;;234.37;92.23;;;;;;;-8.06;100.00;98964.16;2097392;28;20224;-74
2021/01/12 00:38:59;;;;;;;274.65;104.78;;;;;;;-8.07;100.00;98960.75;2097513;28;20222;-74
2021/01/12 00:40:01;;;;;;;256.47;103.10;;;;;;;-8.09;100.00;98949.75;2097413;28;20222;-74
2021/01/12 00:41:05;;;;;;;296.45;112.78;;;;;;;-8.06;100.00;98964.97;2097437;28;20225;-75
2021/01/12 00:42:06;;;;;;;285.35;104.85;;;;;;;-8.04;100.00;98963.00;2097334;28;20240;-74
2021/01/12 00:43:07;;;;;;;296.10;111.78;;;;;;;-8.02;100.00;98960.22;2096142;28;20217;-73
2021/01/12 00:44:08;;;;;;;296.17;110.93;;;;;;;-8.02;100.00;98958.44;2088364;28;20310;-74
2021/01/12 00:45:09;;;;;;;286.00;109.90;;;;;;;-8.01;100.00;98954.06;2096646;28;20237;-74
2021/01/12 00:46:11;;;;;;;321.13;116.70;;;;;;;-8.00;100.00;98959.03;2096546;28;20226;-74
2021/01/12 00:47:11;;;;;;;297.73;112.68;;;;;;;-8.06;100.00;98951.22;2096683;28;20230;-76
2021/01/12 00:48:13;;;;;;;282.53;110.30;;;;;;;-7.99;100.00;98960.69;2097372;28;20332;-76
2021/01/12 00:49:14;;;;;;;290.83;110.90;;;;;;;-7.97;100.00;98965.66;2097035;28;20214;-76
2021/01/12 00:50:15;;;;;;;285.40;108.15;;;;;;;-7.99;100.00;98962.47;2097318;28;20222;-76
2021/01/12 00:51:17;;;;;;;291.42;106.55;;;;;;;-8.00;100.00;98955.66;2096638;28;20222;-74
2021/01/12 00:52:18;;;;;;;273.55;105.65;;;;;;;-7.97;100.00;98961.28;2096554;28;20221;-74
2021/01/12 00:53:18;;;;;;;265.75;102.35;;;;;;;-7.96;100.00;98959.50;2095969;28;20711;-74
2021/01/12 00:54:22;;;;;;;224.93;94.20;;;;;;;-7.96;100.00;98959.50;2096766;28;20222;-74
2021/01/12 00:55:23;;;;;;;237.93;94.15;;;;;;;-8.06;100.00;98946.03;2098702;28;20295;-74
2021/01/12 00:56:24;;;;;;;258.83;98.20;;;;;;;-8.03;100.00;98951.66;2097284;28;20230;-74
2021/01/12 00:57:25;;;;;;;248.32;96.03;;;;;;;-8.04;100.00;98952.63;2097207;28;20279;-76
2021/01/12 00:58:26;;;;;;;254.00;98.13;;;;;;;-7.98;100.00;98951.94;2097148;28;20328;-74
2021/01/12 00:59:27;;;;;;;248.75;94.43;;;;;;;-7.98;100.00;98951.94;2096519;28;20241;-74
2021/01/12 01:00:28;;;;;;;236.60;95.10;;;;;;;-8.04;100.00;98952.63;2097272;28;20229;-74
2021/01/12 01:01:29;;;;;;;238.20;95.72;;;;;;;-8.06;100.00;98946.84;2097205;28;20249;-74
2021/01/12 01:02:30;;;;;;;255.30;103.10;;;;;;;-8.12;100.00;98939.78;2097324;28;20242;-74
2021/01/12 01:03:31;;;;;;;262.73;104.75;;;;;;;-8.14;100.00;98941.75;2097440;28;20233;-75
2021/01/12 01:04:32;;;;;;;280.80;104.80;;;;;;;-8.16;100.00;98950.69;2097251;28;20237;-75
2021/01/12 01:05:33;;;;;;;273.63;106.88;;;;;;;-8.19;100.00;98944.06;2097276;28;20226;-75
2021/01/12 01:06:35;;;;;;;271.00;107.73;;;;;;;-8.16;100.00;98938.53;2097149;28;20222;-74
2021/01/12 01:07:36;;;;;;;290.48;110.95;;;;;;;-8.18;100.00;98948.25;2097373;28;20249;-74
2021/01/12 01:08:37;;;;;;;278.30;106.97;;;;;;;-8.10;100.00;98948.16;2099021;28;20240;-73
2021/01/12 01:09:38;;;;;;;292.40;114.15;;;;;;;-8.14;100.00;98936.56;2097335;28;20560;-74
2021/01/12 01:10:39;;;;;;;301.85;113.10;;;;;;;-8.05;100.00;98942.47;2096184;28;20287;-74
2021/01/12 01:11:41;;;;;;;309.10;118.27;;;;;;;-8.06;100.00;98933.91;2096509;28;20316;-74
2021/01/12 01:12:42;;;;;;;316.20;120.30;;;;;;;-8.05;100.00;98930.31;2097418;28;20233;-74
2021/01/12 01:13:44;;;;;;;324.83;119.60;;;;;;;-7.98;100.00;98928.63;2096256;28;20309;-74
2021/01/12 01:14:44;;;;;;;330.63;121.57;;;;;;;-7.93;100.00;98925.47;2096552;28;20233;-74
2021/01/12 01:15:46;;;;;;;317.03;121.30;;;;;;;-7.98;100.00;98909.72;2097370;28;20305;-74
2021/01/12 01:16:48;;;;;;;331.88;124.32;;;;;;;-8.01;100.00;98904.88;2097225;28;20217;-75
2021/01/12 01:17:49;;;;;;;316.55;119.47;;;;;;;-7.89;100.00;98924.16;2097485;28;20573;-75
2021/01/12 01:18:50;;;;;;;336.73;122.97;;;;;;;-7.84;100.00;98921.81;2096281;28;20240;-74
2021/01/12 01:19:50;;;;;;;354.40;129.00;;;;;;;-7.85;100.00;98925.38;2096445;28;20221;-74
2021/01/12 01:20:52;;;;;;;318.10;120.67;;;;;;;-7.87;100.00;98918.78;2097314;28;20305;-74
2021/01/12 01:21:53;;;;;;;336.10;123.30;;;;;;;-7.85;100.00;98919.41;2098633;28;20268;-74
2021/01/12 01:22:54;;;;;;;327.38;119.63;;;;;;;-7.86;100.00;98923.78;2097089;28;20594;-74
2021/01/12 01:23:55;;;;;;;314.80;121.57;;;;;;;-7.87;100.00;98916.19;2095679;28;20323;-74
2021/01/12 01:24:56;;;;;;;315.53;119.53;;;;;;;-7.88;100.00;98924.97;2088152;28;20230;-75
2021/01/12 01:25:57;;;;;;;326.08;124.18;;;;;;;-7.94;100.00;98920.50;2088041;28;20230;-74
2021/01/12 01:26:58;;;;;;;332.90;124.37;;;;;;;-7.95;100.00;98919.69;2096325;28;20225;-74
2021/01/12 01:27:59;;;;;;;322.55;119.70;;;;;;;-7.94;100.00;98915.31;2096196;28;20680;-74
2021/01/12 01:29:00;;;;;;;294.30;114.53;;;;;;;-7.96;100.00;98915.50;2096413;28;20549;-75
2021/01/12 01:30:01;;;;;;;292.58;111.03;;;;;;;-8.05;100.00;98904.44;2095862;28;20226;-75
2021/01/12 01:31:02;;;;;;;295.77;113.70;;;;;;;-7.99;100.00;98919.25;2096115;28;20305;-75
2021/01/12 01:32:03;;;;;;;279.98;111.03;;;;;;;-8.09;100.00;98908.34;2095965;28;20233;-75
2021/01/12 01:33:05;;;;;;;306.77;115.53;;;;;;;-8.11;100.00;98910.34;2096432;28;20704;-75
2021/01/12 01:34:06;;;;;;;289.85;109.82;;;;;;;-8.09;100.00;98910.16;2097367;28;20230;-75
2021/01/12 01:35:08;;;;;;;315.30;114.95;;;;;;;-8.08;100.00;98910.00;2098755;28;20233;-74
2021/01/12 01:36:10;;;;;;;313.80;118.13;;;;;;;-8.12;100.00;98905.34;2096813;28;20229;-74
2021/01/12 01:37:15;;;;;;;310.55;117.82;;;;;;;-8.16;100.00;98912.66;2097140;28;20232;-75
2021/01/12 01:38:16;;;;;;;323.33;120.47;;;;;;;-8.18;100.00;98903.47;2097049;28;20308;-74
2021/01/12 01:39:17;;;;;;;339.30;120.63;;;;;;;-8.19;100.00;98904.44;2097073;28;20227;-74
2021/01/12 01:40:20;;;;;;;318.50;118.10;;;;;;;-8.12;100.00;98902.75;2097035;28;20356;-75
2021/01/12 01:41:21;;;;;;;312.27;116.65;;;;;;;-8.11;100.00;98910.34;2096190;28;20218;-74
2021/01/12 01:42:22;;;;;;;303.13;115.17;;;;;;;-8.12;100.00;98905.34;2095815;28;20312;-73
2021/01/12 01:43:23;;;;;;;293.83;111.88;;;;;;;-8.17;100.00;98897.28;2096972;28;20574;-75
2021/01/12 01:44:24;;;;;;;297.97;117.20;;;;;;;-8.21;100.00;98899.44;2096167;28;20640;-75
2021/01/12 01:45:25;;;;;;;288.48;109.72;;;;;;;-8.05;100.00;98891.50;2096271;28;20225;-74
2021/01/12 01:46:26;;;;;;;299.38;110.53;;;;;;;-7.99;100.00;98893.38;2096412;28;20696;-74
2021/01/12 01:47:27;;;;;;;293.17;108.78;;;;;;;-8.01;100.00;98884.97;2096370;28;20238;-75
2021/01/12 01:48:29;;;;;;;272.47;103.57;;;;;;;-8.02;100.00;98882.56;2097072;28;20310;-75
2021/01/12 01:49:30;;;;;;;276.85;106.15;;;;;;;-7.92;100.00;98903.00;2096947;28;20725;-75
2021/01/12 01:50:31;;;;;;;283.57;106.07;;;;;;;-7.98;100.00;98902.75;2096895;28;20635;-76
2021/01/12 01:51:32;;;;;;;278.17;104.38;;;;;;;-8.02;100.00;98898.09;2096088;28;20214;-75
2021/01/12 01:52:34;;;;;;;279.67;107.23;;;;;;;-8.09;100.00;98898.00;2096266;28;20250;-76
2021/01/12 01:53:35;;;;;;;280.88;105.15;;;;;;;-8.13;100.00;98899.34;2097092;28;20226;-75
2021/01/12 01:54:38;;;;;;;264.67;101.15;;;;;;;-8.17;100.00;98887.75;2096989;28;20316;-76
2021/01/12 01:55:40;;;;;;;272.20;98.90;;;;;;;-8.18;100.00;98885.34;2095737;28;20238;-76
2021/01/12 01:56:41;;;;;;;254.30;99.22;;;;;;;-8.23;100.00;98885.91;2087222;28;20677;-75
2021/01/12 01:57:41;;;;;;;264.48;96.75;;;;;;;-8.25;100.00;98880.09;2096049;28;20648;-76
2021/01/12 01:58:46;;;;;;;243.40;96.37;;;;;;;-8.20;100.00;98884.72;2105200;28;20324;-76
2021/01/12 01:59:46;;;;;;;238.90;93.25;;;;;;;-8.21;100.00;98885.72;2105127;28;20228;-76
2021/01/12 02:00:48;;;;;;;235.03;94.37;;;;;;;-8.19;100.00;98888.91;2105177;28;20220;-76
2021/01/12 02:01:49;;;;;;;249.95;95.40;;;;;;;-8.32;100.00;98876.63;2095674;28;20246;-76
2021/01/12 02:02:55;;;;;;;242.80;94.03;;;;;;;-8.30;100.00;98879.84;2095639;28;20696;-77
2021/01/12 02:04:04;;;;;;;244.10;93.43;;;;;;;-8.28;100.00;98880.44;2096616;28;20579;-76
2021/01/12 02:05:10;;;;;;;243.50;92.63;;;;;;;-8.27;100.00;98882.84;2104971;28;20228;-77
2021/01/12 02:06:15;;;;;;;251.93;93.30;;;;;;;-8.29;100.00;98871.09;2094264;28;20214;-76
2021/01/12 02:07:16;;;;;;;258.00;92.53;;;;;;;-8.35;100.00;98877.00;2096365;28;20771;-76
2021/01/12 02:08:22;;;;;;;238.50;92.20;;;;;;;-8.36;100.00;98875.41;2096942;28;20707;-76
2021/01/12 02:09:27;;;;;;;256.27;92.45;;;;;;;-8.36;100.00;98870.22;2098166;28;20680;-76
2021/01/12 02:10:29;;;;;;;244.77;91.57;;;;;;;-8.35;100.00;98866.66;2096827;28;20229;-76
2021/01/12 02:11:36;;;;;;;241.05;93.00;;;;;;;-8.30;100.00;98866.91;2096905;28;20308;-76
2021/01/12 02:12:39;;;;;;;249.55;96.15;;;;;;;-8.34;100.00;98870.81;2095970;28;20249;-76
2021/01/12 02:13:41;;;;;;;259.67;96.97;;;;;;;-8.40;100.00;98869.78;2095771;28;20250;-76
2021/01/12 02:14:43;;;;;;;235.02;90.13;;;;;;;-8.40;100.00;98859.44;2095376;28;20260;-76
2021/01/12 02:15:45;;;;;;;258.85;95.60;;;;;;;-8.42;100.00;98860.63;2096285;28;20757;-73
2021/01/12 02:16:47;;;;;;;242.20;92.82;;;;;;;-8.46;100.00;98854.19;2097051;28;20214;-76
2021/01/12 02:17:48;;;;;;;246.73;93.35;;;;;;;-8.49;100.00;98852.75;2095532;28;20253;-76
2021/01/12 02:18:49;;;;;;;256.33;97.10;;;;;;;-8.60;100.00;98848.84;2096171;28;20727;-76
2021/01/12 02:19:52;;;;;;;236.80;93.13;;;;;;;-8.50;100.00;98864.09;2095989;28;20218;-74
2021/01/12 02:20:53;;;;;;;243.35;91.03;;;;;;;-8.60;100.00;98858.34;2095889;28;20232;-73
2021/01/12 02:21:58;;;;;;;245.57;93.43;;;;;;;-8.59;100.00;98855.63;2096884;28;20230;-74
2021/01/12 02:23:07;;;;;;;236.77;92.65;;;;;;;-8.58;100.00;98856.41;2096813;28;20680;-74
2021/01/12 02:24:10;;;;;;;254.38;93.70;;;;;;;-8.60;100.00;98854.00;2098434;28;20229;-74
2021/01/12 02:25:11;;;;;;;238.18;89.35;;;;;;;-8.61;100.00;98854.97;2096110;28;20221;-75
2021/01/12 02:26:12;;;;;;;233.07;90.35;;;;;;;-8.61;100.00;98851.56;2096187;28;20249;-75
2021/01/12 02:27:19;;;;;;;236.05;90.63;;;;;;;-8.64;100.00;98842.41;2095889;28;20241;-74
2021/01/12 02:28:20;;;;;;;235.43;90.05;;;;;;;-8.64;100.00;98842.41;2096368;28;20217;-74
2021/01/12 02:29:21;;;;;;;235.43;90.30;;;;;;;-8.58;100.00;98843.50;2096110;28;20229;-76
2021/01/12 02:30:22;;;;;;;242.20;91.43;;;;;;;-8.56;100.00;98852.66;2087761;28;20233;-76
2021/01/12 02:31:23;;;;;;;239.35;91.25;;;;;;;-8.55;100.00;98849.09;2087400;28;20312;-74
2021/01/12 02:32:24;;;;;;;238.80;90.53;;;;;;;-8.57;100.00;98837.34;2087725;28;20246;-75
2021/01/12 02:33:24;;;;;;;246.07;90.22;;;;;;;-8.49;100.00;98851.97;2096219;28;20222;-76
2021/01/12 02:34:27;;;;;;;245.00;92.07;;;;;;;-8.50;100.00;98842.59;2096721;28;20221;-75
2021/01/12 02:35:30;;;;;;;225.63;89.38;;;;;;;-8.50;100.00;98843.41;2096790;28;20230;-76
2021/01/12 02:36:32;;;;;;;232.68;92.50;;;;;;;-8.48;100.00;98838.03;2096948;28;20573;-75
2021/01/12 02:37:33;;;;;;;235.35;92.20;;;;;;;-8.50;100.00;98835.63;2096761;28;20226;-75
2021/01/12 02:38:35;;;;;;;231.88;91.55;;;;;;;-8.53;100.00;98827.41;2095999;28;20230;-76
2021/01/12 02:39:36;;;;;;;247.40;94.30;;;;;;;-8.50;100.00;98832.25;2096151;28;20698;-76
2021/01/12 02:40:38;;;;;;;237.43;91.63;;;;;;;-8.51;100.00;98826.28;2102352;28;20226;-75
2021/01/12 02:41:39;;;;;;;249.50;93.57;;;;;;;-8.58;100.00;98820.22;2096574;28;20260;-75
2021/01/12 02:42:42;;;;;;;231.38;89.30;;;;;;;-8.52;100.00;98829.00;2096773;28;20217;-75
2021/01/12 02:43:43;;;;;;;228.05;86.47;;;;;;;-8.56;100.00;98824.22;2096006;28;20218;-75
2021/01/12 02:44:45;;;;;;;226.93;85.50;;;;;;;-8.54;100.00;98821.44;2096058;28;20222;-75
2021/01/12 02:45:46;;;;;;;220.88;87.35;;;;;;;-8.58;100.00;98807.28;2096771;28;20271;-75
2021/01/12 02:46:47;;;;;;;237.33;93.27;;;;;;;-8.57;100.00;98806.31;2096953;28;20271;-76
2021/01/12 02:47:48;;;;;;;235.38;93.65;;;;;;;-8.57;100.00;98808.88;2096700;28;20218;-75
2021/01/12 02:48:49;;;;;;;245.57;92.80;;;;;;;-8.58;100.00;98800.31;2096764;28;20748;-76
2021/01/12 02:49:50;;;;;;;230.48;94.50;;;;;;;-8.58;100.00;98810.66;2096756;28;20448;-76
2021/01/12 02:50:51;;;;;;;232.53;92.30;;;;;;;-8.61;100.00;98799.88;2096811;28;20228;-75
2021/01/12 02:51:52;;;;;;;235.73;95.50;;;;;;;-8.55;100.00;98806.91;2098420;28;20664;-75
2021/01/12 02:52:53;;;;;;;231.30;91.10;;;;;;;-8.59;100.00;98798.72;2096724;28;20579;-75
2021/01/12 02:53:54;;;;;;;244.50;92.72;;;;;;;-8.57;100.00;98806.31;2095044;28;20226;-75
2021/01/12 02:54:56;;;;;;;240.13;95.50;;;;;;;-8.60;100.00;98801.47;2087652;28;20680;-75
2021/01/12 02:55:57;;;;;;;250.13;94.65;;;;;;;-8.66;100.00;98794.44;2095957;28;20246;-75
2021/01/12 02:56:58;;;;;;;243.37;93.67;;;;;;;-8.65;100.00;98798.63;2096719;28;20691;-74
2021/01/12 02:57:58;;;;;;;271.92;99.78;;;;;;;-8.68;100.00;98797.22;2095757;28;20226;-75
2021/01/12 02:59:00;;;;;;;250.33;94.57;;;;;;;-8.74;100.00;98789.38;2087617;28;20233;-75
2021/01/12 03:00:01;;;;;;;256.90;95.70;;;;;;;-8.74;100.00;98792.75;2087169;28;20230;-75
2021/01/12 03:01:03;;;;;;;239.43;95.00;;;;;;;-8.76;100.00;98791.34;2087472;28;20235;-75
2021/01/12 03:02:03;;;;;;;249.18;95.22;;;;;;;-8.74;100.00;98790.16;2096048;28;20222;-75
2021/01/12 03:03:05;;;;;;;239.03;94.03;;;;;;;-8.80;100.00;98777.94;2096641;28;20224;-75
2021/01/12 03:04:06;;;;;;;249.52;94.97;;;;;;;-8.75;100.00;98783.41;2095941;28;20226;-76
2021/01/12 03:05:09;;;;;;;255.60;99.13;;;;;;;-8.67;100.00;98785.09;2095715;28;20687;-74
2021/01/12 03:06:09;;;;;;;273.08;102.00;;;;;;;-8.66;100.00;98787.50;2095784;28;20680;-75
2021/01/12 03:07:11;;;;;;;264.53;99.30;;;;;;;-8.67;100.00;98779.91;2096022;28;20580;-75
2021/01/12 03:08:11;;;;;;;253.75;101.78;;;;;;;-8.75;100.00;98775.63;2096804;28;22675;-76
2021/01/12 03:09:13;;;;;;;256.83;99.70;;;;;;;-8.75;100.00;98765.28;2096650;28;20226;-76
2021/01/12 03:10:14;;;;;;;261.85;101.50;;;;;;;-8.71;100.00;98779.47;2096845;28;20451;-75
2021/01/12 03:11:15;;;;;;;243.52;94.90;;;;;;;-8.71;100.00;98784.63;2095152;28;20230;-75
2021/01/12 03:12:16;;;;;;;244.43;95.78;;;;;;;-8.74;100.00;98766.91;2096078;28;20727;-75
2021/01/12 03:13:17;;;;;;;253.60;97.30;;;;;;;-8.76;100.00;98766.28;2096713;28;20629;-76
2021/01/12 03:14:18;;;;;;;240.20;92.57;;;;;;;-8.77;100.00;98769.03;2096691;28;20219;-75
2021/01/12 03:15:19;;;;;;;251.15;95.70;;;;;;;-8.76;100.00;98766.28;2096806;28;20225;-75
2021/01/12 03:16:20;;;;;;;238.00;90.95;;;;;;;-8.76;100.00;98763.69;2096854;28;20229;-76
2021/01/12 03:17:21;;;;;;;239.70;95.40;;;;;;;-8.79;100.00;98771.78;2095815;28;20218;-76
2021/01/12 03:18:22;;;;;;;248.70;95.43;;;;;;;-8.76;100.00;98758.53;2095572;28;20692;-74
2021/01/12 03:19:23;;;;;;;216.73;86.53;;;;;;;-8.76;100.00;98765.47;2096648;28;20574;-75
2021/01/12 03:20:26;;;;;;;215.10;88.35;;;;;;;-8.75;100.00;98756.75;2096585;28;20279;-75
2021/01/12 03:21:27;;;;;;;231.15;93.18;;;;;;;-8.75;100.00;98761.91;2096672;28;20237;-75
2021/01/12 03:22:28;;;;;;;243.80;94.70;;;;;;;-8.77;100.00;98751.75;2096359;28;20774;-75
2021/01/12 03:23:29;;;;;;;242.10;92.67;;;;;;;-8.76;100.00;98748.19;2097359;28;20590;-75
2021/01/12 03:24:30;;;;;;;244.63;93.50;;;;;;;-8.78;100.00;98744.94;2098126;28;20688;-75
2021/01/12 03:25:32;;;;;;;246.90;92.97;;;;;;;-8.78;100.00;98747.53;2098019;28;20570;-75
2021/01/12 03:26:32;;;;;;;237.10;93.30;;;;;;;-8.77;100.00;98741.41;2097240;28;20222;-76
2021/01/12 03:27:34;;;;;;;255.33;96.17;;;;;;;-8.90;100.00;98726.53;2097450;28;20232;-76
2021/01/12 03:28:34;;;;;;;261.55;94.65;;;;;;;-8.82;100.00;98733.38;2098151;28;20232;-75
2021/01/12 03:29:36;;;;;;;235.90;93.93;;;;;;;-8.84;100.00;98735.34;2098189;28;20217;-75
2021/01/12 03:30:36;;;;;;;241.05;95.82;;;;;;;-8.85;100.00;98741.50;2096073;28;20733;-74
2021/01/12 03:31:37;;;;;;;237.83;93.63;;;;;;;-8.87;100.00;98738.28;2097239;28;20604;-75
2021/01/12 03:32:38;;;;;;;219.02;90.85;;;;;;;-8.90;100.00;98734.28;2097958;28;20229;-76
2021/01/12 03:33:39;;;;;;;244.37;95.17;;;;;;;-8.90;100.00;98734.28;2096771;28;20313;-75
2021/01/12 03:34:40;;;;;;;235.05;92.53;;;;;;;-8.91;100.00;98731.88;2097265;28;20777;-75
2021/01/12 03:35:41;;;;;;;213.03;86.27;;;;;;;-8.94;100.00;98716.75;2097998;28;20673;-75
2021/01/12 03:36:42;;;;;;;233.93;84.68;;;;;;;-8.83;100.00;98726.63;2097267;28;20222;-76
2021/01/12 03:37:43;;;;;;;241.20;94.10;;;;;;;-8.84;100.00;98730.97;2088395;28;20219;-75
2021/01/12 03:38:44;;;;;;;262.77;96.72;;;;;;;-8.85;100.00;98726.00;2097277;28;20230;-75
2021/01/12 03:39:45;;;;;;;221.87;87.67;;;;;;;-8.86;100.00;98727.78;2097919;28;20230;-75
2021/01/12 03:40:47;;;;;;;203.35;82.43;;;;;;;-8.86;100.00;98721.78;2097980;28;20241;-76
2021/01/12 03:41:48;;;;;;;249.52;96.68;;;;;;;-8.82;100.00;98720.47;2097847;28;20226;-76
2021/01/12 03:42:49;;;;;;;258.27;98.57;;;;;;;-8.91;100.00;98704.25;2096576;28;20309;-75
2021/01/12 03:43:50;;;;;;;255.53;96.83;;;;;;;-8.87;100.00;98713.22;2097155;28;20222;-75
2021/01/12 03:44:51;;;;;;;240.60;92.97;;;;;;;-8.86;100.00;98716.63;2097213;28;20576;-75
2021/01/12 03:45:52;;;;;;;244.73;97.80;;;;;;;-8.87;100.00;98707.25;2097150;28;20253;-75
2021/01/12 03:46:53;;;;;;;244.73;97.47;;;;;;;-8.88;100.00;98703.06;2097216;28;20222;-75
2021/01/12 03:47:54;;;;;;;252.90;98.70;;;;;;;-8.92;100.00;98701.84;2097999;28;20218;-75
2021/01/12 03:48:54;;;;;;;242.98;96.13;;;;;;;-8.96;100.00;98703.19;2097964;28;20260;-75
2021/01/12 03:49:56;;;;;;;254.50;97.93;;;;;;;-8.93;100.00;98702.84;2097059;28;20226;-75
2021/01/12 03:50:56;;;;;;;238.48;96.03;;;;;;;-8.96;100.00;98705.75;2097184;28;20233;-75
2021/01/12 03:51:58;;;;;;;238.97;95.57;;;;;;;-8.99;100.00;98703.53;2097945;28;20246;-75
2021/01/12 03:52:58;;;;;;;248.20;98.18;;;;;;;-9.02;100.00;98702.13;2097910;28;20221;-75
2021/01/12 03:53:59;;;;;;;251.47;93.17;;;;;;;-9.02;100.00;98704.72;2097875;28;20222;-75
2021/01/12 03:55:00;;;;;;;257.85;98.88;;;;;;;-9.03;100.00;98703.13;2097070;28;20581;-75
2021/01/12 03:56:03;;;;;;;237.57;94.20;;;;;;;-9.08;100.00;98691.69;2097077;28;20241;-75
2021/01/12 03:57:04;;;;;;;246.57;98.70;;;;;;;-9.05;100.00;98705.06;2097089;28;20245;-75
2021/01/12 03:58:05;;;;;;;253.38;99.90;;;;;;;-9.08;100.00;98696.88;2097666;28;20673;-75
2021/01/12 03:59:06;;;;;;;254.43;95.85;;;;;;;-9.12;100.00;98704.19;2096227;28;20226;-76
2021/01/12 04:00:08;;;;;;;243.30;96.80;;;;;;;-9.12;100.00;98697.25;2087941;28;20253;-73
2021/01/12 04:01:13;;;;;;;243.23;99.07;;;;;;;-9.18;100.00;98682.44;2097486;28;20243;-75
2021/01/12 04:02:15;;;;;;;260.90;98.90;;;;;;;-9.13;100.00;98693.03;2096322;28;20264;-76
2021/01/12 04:03:15;;;;;;;251.80;102.10;;;;;;;-9.13;100.00;98690.44;2088603;28;20214;-75
2021/01/12 04:04:17;;;;;;;261.57;99.47;;;;;;;-9.13;100.00;98695.59;2088658;28;20256;-75
2021/01/12 04:05:18;;;;;;;255.15;98.72;;;;;;;-9.14;100.00;98693.22;2097072;28;20252;-75
2021/01/12 04:06:19;;;;;;;254.15;100.20;;;;;;;-9.15;100.00;98699.34;2106066;28;20218;-76
2021/01/12 04:07:20;;;;;;;256.77;99.93;;;;;;;-9.18;100.00;98682.44;2105899;28;20245;-76
2021/01/12 04:08:22;;;;;;;242.57;96.53;;;;;;;-9.18;100.00;98694.56;2106090;28;20578;-75
2021/01/12 04:09:23;;;;;;;268.15;99.45;;;;;;;-9.18;100.00;98694.56;2096506;28;20765;-75
2021/01/12 04:10:24;;;;;;;254.10;100.10;;;;;;;-9.20;100.00;98688.78;2096871;28;20226;-75
2021/01/12 04:11:29;;;;;;;246.90;96.40;;;;;;;-9.19;100.00;98693.75;2097875;28;20560;-75
2021/01/12 04:12:31;;;;;;;265.85;100.30;;;;;;;-9.20;100.00;98691.34;2097756;28;20230;-76
2021/01/12 04:13:31;;;;;;;262.75;100.40;;;;;;;-9.08;100.00;98691.69;2097930;28;20210;-75
2021/01/12 04:14:33;;;;;;;265.37;103.57;;;;;;;-9.07;100.00;98691.50;2097710;28;20250;-75
2021/01/12 04:15:33;;;;;;;256.30;100.38;;;;;;;-9.06;100.00;98679.41;2097610;28;20233;-75
2021/01/12 04:16:34;;;;;;;257.07;101.57;;;;;;;-9.10;100.00;98670.41;2097873;28;20309;-75
2021/01/12 04:17:35;;;;;;;278.10;108.00;;;;;;;-9.05;100.00;98673.25;2097713;28;20218;-75
2021/01/12 04:18:36;;;;;;;270.73;104.47;;;;;;;-9.03;100.00;98673.84;2097675;28;20233;-75
2021/01/12 04:19:37;;;;;;;273.60;101.15;;;;;;;-9.06;100.00;98675.03;2099181;28;20230;-75
2021/01/12 04:20:38;;;;;;;259.27;103.30;;;;;;;-9.07;100.00;98680.38;2097652;28;20234;-75
2021/01/12 04:21:39;;;;;;;255.38;99.88;;;;;;;-9.08;100.00;98682.16;2097468;28;20582;-75
2021/01/12 04:22:40;;;;;;;260.15;98.22;;;;;;;-9.09;100.00;98677.97;2097627;28;20248;-75
2021/01/12 04:23:41;;;;;;;274.52;101.60;;;;;;;-9.09;100.00;98674.59;2096846;28;20635;-76
2021/01/12 04:24:42;;;;;;;261.80;101.17;;;;;;;-9.13;100.00;98672.34;2096914;28;20308;-76
2021/01/12 04:25:43;;;;;;;256.70;98.10;;;;;;;-9.15;100.00;98669.16;2097621;28;20297;-75
2021/01/12 04:26:45;;;;;;;256.17;99.47;;;;;;;-9.19;100.00;98667.94;2097596;28;20668;-75
2021/01/12 04:27:46;;;;;;;277.63;101.20;;;;;;;-9.21;100.00;98659.56;2097608;28;20214;-75
2021/01/12 04:28:47;;;;;;;259.60;99.30;;;;;;;-9.20;100.00;98666.31;2096789;28;20233;-76
2021/01/12 04:29:48;;;;;;;265.00;100.10;;;;;;;-9.20;100.00;98660.34;2088472;28;20720;-76
2021/01/12 04:30:49;;;;;;;249.63;97.17;;;;;;;-9.24;100.00;98652.16;2096884;28;20684;-75
2021/01/12 04:31:49;;;;;;;250.18;96.88;;;;;;;-9.29;100.00;98636.41;2097599;28;20300;-75
2021/01/12 04:32:51;;;;;;;244.00;97.50;;;;;;;-9.20;100.00;98657.78;2097451;28;20731;-76
2021/01/12 04:33:52;;;;;;;254.23;99.22;;;;;;;-9.21;100.00;98656.97;2099088;28;20397;-74
2021/01/12 04:34:53;;;;;;;255.57;94.57;;;;;;;-9.24;100.00;98656.50;2096622;28;20324;-75
2021/01/12 04:35:53;;;;;;;266.25;99.47;;;;;;;-9.26;100.00;98661.88;2096723;28;20222;-75
2021/01/12 04:36:55;;;;;;;259.13;94.53;;;;;;;-9.29;100.00;98653.69;2097482;28;20313;-75